sensor_id;sensor_type;location;lat;lon;timestamp;temperature;humidity
16523;DHT22;19889;52.546;13.348;2023-05-20T07:44:07;14.90;99.90
16523;DHT22;19889;52.546;13.348;2023-05-20T07:56:31;15.00;99.90
16523;DHT22;19889;52.546;13.348;2023-05-20T07:58:59;15.10;99.90
16523;DHT22;19889;52.546;13.348;2023-05-20T08:01:30;15.00;99.90
16523;DHT22;19889;52.546;13.348;2023-05-20T08:04:00;15.30;99.90
16523;DHT22;19889;52.546;13.348;2023-05-20T08:06:27;15.60;99.90
16523;DHT22;19889;52.546;13.348;2023-05-20T08:08:54;15.30;99.90
16523;DHT22;19889;52.546;13.348;2023-05-20T08:11:27;15.30;99.90
16523;DHT22;19889;52.546;13.348;2023-05-20T08:13:54;15.20;99.90
16523;DHT22;19889;52.546;13.348;2023-05-20T08:16:24;16.00;99.90
16523;DHT22;19889;52.546;13.348;2023-05-20T08:18:51;15.30;99.90
16523;DHT22;19889;52.546;13.348;2023-05-20T08:21:21;15.50;99.90
16523;DHT22;19889;52.546;13.348;2023-05-20T08:23:48;15.50;99.90
16523;DHT22;19889;52.546;13.348;2023-05-20T08:26:16;15.50;99.90
16523;DHT22;19889;52.546;13.348;2023-05-20T08:28:43;15.50;99.90
16523;DHT22;19889;52.546;13.348;2023-05-20T08:31:10;15.60;99.90
16523;DHT22;19889;52.546;13.348;2023-05-20T08:33:38;15.60;99.90
16523;DHT22;19889;52.546;13.348;2023-05-20T08:36:05;15.60;99.90
16523;DHT22;19889;52.546;13.348;2023-05-20T08:38:35;15.60;99.90
16523;DHT22;19889;52.546;13.348;2023-05-20T08:41:02;15.60;99.90
16523;DHT22;19889;52.546;13.348;2023-05-20T08:43:29;15.70;99.90
16523;DHT22;19889;52.546;13.348;2023-05-20T08:45:58;15.80;99.90
16523;DHT22;19889;52.546;13.348;2023-05-20T08:48:29;15.80;99.90
16523;DHT22;19889;52.546;13.348;2023-05-20T08:50:57;15.80;99.90
16523;DHT22;19889;52.546;13.348;2023-05-20T08:53:25;15.80;99.90
16523;DHT22;19889;52.546;13.348;2023-05-20T08:55:55;15.50;99.90
16523;DHT22;19889;52.546;13.348;2023-05-20T08:58:23;16.00;99.90
16523;DHT22;19889;52.546;13.348;2023-05-20T09:00:50;15.90;99.90
16523;DHT22;19889;52.546;13.348;2023-05-20T09:03:18;15.90;99.90
16523;DHT22;19889;52.546;13.348;2023-05-20T09:05:46;16.00;99.90
16523;DHT22;19889;52.546;13.348;2023-05-20T09:08:13;16.00;99.90
16523;DHT22;19889;52.546;13.348;2023-05-20T09:10:41;16.20;99.90
16523;DHT22;19889;52.546;13.348;2023-05-20T09:13:10;16.10;99.90
16523;DHT22;19889;52.546;13.348;2023-05-20T09:15:37;16.00;99.90
16523;DHT22;19889;52.546;13.348;2023-05-20T09:18:06;16.00;99.90
16523;DHT22;19889;52.546;13.348;2023-05-20T09:20:35;16.30;99.90
16523;DHT22;19889;52.546;13.348;2023-05-20T09:23:03;16.00;99.90
16523;DHT22;19889;52.546;13.348;2023-05-20T09:25:31;16.00;99.90
16523;DHT22;19889;52.546;13.348;2023-05-20T09:27:58;16.10;99.90
16523;DHT22;19889;52.546;13.348;2023-05-20T09:30:27;16.00;99.90
16523;DHT22;19889;52.546;13.348;2023-05-20T09:32:54;16.10;99.90
16523;DHT22;19889;52.546;13.348;2023-05-20T09:35:21;16.00;99.90
16523;DHT22;19889;52.546;13.348;2023-05-20T09:37:52;16.00;99.90
16523;DHT22;19889;52.546;13.348;2023-05-20T09:40:23;16.00;99.90
16523;DHT22;19889;52.546;13.348;2023-05-20T09:42:53;16.10;99.90
16523;DHT22;19889;52.546;13.348;2023-05-20T09:45:21;16.10;99.90
16523;DHT22;19889;52.546;13.348;2023-05-20T09:47:51;16.10;99.90
16523;DHT22;19889;52.546;13.348;2023-05-20T09:50:20;16.10;99.90
16523;DHT22;19889;52.546;13.348;2023-05-20T09:52:48;16.10;99.90
16523;DHT22;19889;52.546;13.348;2023-05-20T09:55:16;16.10;99.90
16523;DHT22;19889;52.546;13.348;2023-05-20T09:57:44;16.10;99.90
16523;DHT22;19889;52.546;13.348;2023-05-20T10:00:12;16.20;99.90
16523;DHT22;19889;52.546;13.348;2023-05-20T10:02:43;16.20;99.90
16523;DHT22;19889;52.546;13.348;2023-05-20T10:05:15;16.20;99.90
16523;DHT22;19889;52.546;13.348;2023-05-20T10:08:13;16.20;99.90
16523;DHT22;19889;52.546;13.348;2023-05-20T10:10:48;16.20;99.90
16523;DHT22;19889;52.546;13.348;2023-05-20T10:13:24;16.20;99.90
16523;DHT22;19889;52.546;13.348;2023-05-20T10:16:00;16.20;99.90
16523;DHT22;19889;52.546;13.348;2023-05-20T10:18:39;16.20;99.90
16523;DHT22;19889;52.546;13.348;2023-05-20T10:21:16;16.20;99.90
16523;DHT22;19889;52.546;13.348;2023-05-20T10:23:43;16.20;99.90
16523;DHT22;19889;52.546;13.348;2023-05-20T10:26:10;16.20;99.90
16523;DHT22;19889;52.546;13.348;2023-05-20T10:28:39;16.30;99.90
16523;DHT22;19889;52.546;13.348;2023-05-20T10:31:14;16.30;99.90
16523;DHT22;19889;52.546;13.348;2023-05-20T10:33:43;16.30;99.90
16523;DHT22;19889;52.546;13.348;2023-05-20T10:36:22;16.30;99.90
16523;DHT22;19889;52.546;13.348;2023-05-20T10:38:52;16.30;99.90
16523;DHT22;19889;52.546;13.348;2023-05-20T10:41:20;16.10;99.90
16523;DHT22;19889;52.546;13.348;2023-05-20T10:43:59;16.30;99.90
16523;DHT22;19889;52.546;13.348;2023-05-20T10:46:26;16.30;99.90
16523;DHT22;19889;52.546;13.348;2023-05-20T10:48:53;16.40;99.90
16523;DHT22;19889;52.546;13.348;2023-05-20T10:51:22;16.40;99.90
16523;DHT22;19889;52.546;13.348;2023-05-20T10:53:52;16.50;99.90
16523;DHT22;19889;52.546;13.348;2023-05-20T10:56:20;16.50;99.90
16523;DHT22;19889;52.546;13.348;2023-05-20T10:58:48;16.50;99.90
16523;DHT22;19889;52.546;13.348;2023-05-20T11:01:16;16.50;99.90
16523;DHT22;19889;52.546;13.348;2023-05-20T11:03:44;16.50;99.90
16523;DHT22;19889;52.546;13.348;2023-05-20T11:06:13;16.50;99.90
16523;DHT22;19889;52.546;13.348;2023-05-20T11:08:42;16.50;99.90
16523;DHT22;19889;52.546;13.348;2023-05-20T11:11:10;16.60;99.90
16523;DHT22;19889;52.546;13.348;2023-05-20T11:13:37;16.60;99.90
16523;DHT22;19889;52.546;13.348;2023-05-20T11:16:05;16.70;99.90
16523;DHT22;19889;52.546;13.348;2023-05-20T11:18:32;16.70;99.90
16523;DHT22;19889;52.546;13.348;2023-05-20T11:21:00;16.80;99.90
16523;DHT22;19889;52.546;13.348;2023-05-20T11:23:28;16.80;99.90
16523;DHT22;19889;52.546;13.348;2023-05-20T11:25:56;16.80;99.90
16523;DHT22;19889;52.546;13.348;2023-05-20T11:28:24;16.90;99.90
16523;DHT22;19889;52.546;13.348;2023-05-20T11:30:52;16.90;99.90
16523;DHT22;19889;52.546;13.348;2023-05-20T11:33:19;17.00;99.90
16523;DHT22;19889;52.546;13.348;2023-05-20T11:35:47;17.10;99.90
16523;DHT22;19889;52.546;13.348;2023-05-20T11:38:15;17.10;99.90
16523;DHT22;19889;52.546;13.348;2023-05-20T11:40:43;17.10;99.90
16523;DHT22;19889;52.546;13.348;2023-05-20T11:43:13;18.50;99.90
16523;DHT22;19889;52.546;13.348;2023-05-20T11:45:40;18.50;99.90
16523;DHT22;19889;52.546;13.348;2023-05-20T11:48:08;17.20;99.90
16523;DHT22;19889;52.546;13.348;2023-05-20T11:50:37;17.20;99.90
16523;DHT22;19889;52.546;13.348;2023-05-20T11:53:07;17.30;99.90
16523;DHT22;19889;52.546;13.348;2023-05-20T11:55:43;17.30;99.90
16523;DHT22;19889;52.546;13.348;2023-05-20T11:58:14;17.30;99.90
16523;DHT22;19889;52.546;13.348;2023-05-20T12:00:42;17.40;99.90
16523;DHT22;19889;52.546;13.348;2023-05-20T12:03:09;17.40;99.90
16523;DHT22;19889;52.546;13.348;2023-05-20T12:05:37;17.40;99.90
16523;DHT22;19889;52.546;13.348;2023-05-20T12:08:04;17.40;99.90
16523;DHT22;19889;52.546;13.348;2023-05-20T12:10:31;17.40;99.90
16523;DHT22;19889;52.546;13.348;2023-05-20T12:12:58;17.40;99.90
16523;DHT22;19889;52.546;13.348;2023-05-20T12:15:27;17.50;99.90
16523;DHT22;19889;52.546;13.348;2023-05-20T12:17:54;17.50;99.90
16523;DHT22;19889;52.546;13.348;2023-05-20T12:20:22;17.50;99.90
16523;DHT22;19889;52.546;13.348;2023-05-20T12:22:50;17.50;99.90
16523;DHT22;19889;52.546;13.348;2023-05-20T12:25:18;17.50;99.90
16523;DHT22;19889;52.546;13.348;2023-05-20T12:27:47;17.50;99.90
16523;DHT22;19889;52.546;13.348;2023-05-20T12:30:16;17.50;99.90
16523;DHT22;19889;52.546;13.348;2023-05-20T12:32:45;17.50;99.90
16523;DHT22;19889;52.546;13.348;2023-05-20T12:35:14;17.50;99.90
16523;DHT22;19889;52.546;13.348;2023-05-20T12:37:42;17.60;99.90
16523;DHT22;19889;52.546;13.348;2023-05-20T12:40:11;17.60;99.90
16523;DHT22;19889;52.546;13.348;2023-05-20T12:42:39;17.60;99.90
16523;DHT22;19889;52.546;13.348;2023-05-20T12:45:07;17.60;99.90
16523;DHT22;19889;52.546;13.348;2023-05-20T12:47:35;17.60;99.90
16523;DHT22;19889;52.546;13.348;2023-05-20T12:50:03;17.60;99.90
16523;DHT22;19889;52.546;13.348;2023-05-20T12:52:30;17.60;99.90
16523;DHT22;19889;52.546;13.348;2023-05-20T12:54:57;17.60;99.90
16523;DHT22;19889;52.546;13.348;2023-05-20T12:57:25;17.60;99.90
16523;DHT22;19889;52.546;13.348;2023-05-20T12:59:52;17.60;99.90
16523;DHT22;19889;52.546;13.348;2023-05-20T13:02:19;17.60;99.90
16523;DHT22;19889;52.546;13.348;2023-05-20T13:04:46;17.60;99.90
16523;DHT22;19889;52.546;13.348;2023-05-20T13:07:14;17.60;99.90
16523;DHT22;19889;52.546;13.348;2023-05-20T13:09:41;17.70;99.90
16523;DHT22;19889;52.546;13.348;2023-05-20T13:12:08;17.70;99.90
16523;DHT22;19889;52.546;13.348;2023-05-20T13:14:35;17.70;99.90
16523;DHT22;19889;52.546;13.348;2023-05-20T13:17:02;17.70;99.90
16523;DHT22;19889;52.546;13.348;2023-05-20T13:19:29;17.70;99.90
16523;DHT22;19889;52.546;13.348;2023-05-20T13:21:56;17.80;99.90
16523;DHT22;19889;52.546;13.348;2023-05-20T13:24:25;17.80;99.90
16523;DHT22;19889;52.546;13.348;2023-05-20T13:26:52;17.80;99.90
16523;DHT22;19889;52.546;13.348;2023-05-20T13:29:19;17.80;99.90
16523;DHT22;19889;52.546;13.348;2023-05-20T13:31:46;17.80;99.90
16523;DHT22;19889;52.546;13.348;2023-05-20T13:34:14;17.80;99.90
16523;DHT22;19889;52.546;13.348;2023-05-20T13:36:40;17.90;99.90
16523;DHT22;19889;52.546;13.348;2023-05-20T13:39:08;17.90;99.90
16523;DHT22;19889;52.546;13.348;2023-05-20T13:41:36;17.90;99.90
16523;DHT22;19889;52.546;13.348;2023-05-20T13:44:03;17.90;99.90
16523;DHT22;19889;52.546;13.348;2023-05-20T13:46:30;17.90;99.90
16523;DHT22;19889;52.546;13.348;2023-05-20T13:48:57;17.90;99.90
16523;DHT22;19889;52.546;13.348;2023-05-20T13:51:24;17.90;99.90
16523;DHT22;19889;52.546;13.348;2023-05-20T13:53:51;18.00;99.90
16523;DHT22;19889;52.546;13.348;2023-05-20T13:56:18;18.00;99.90
16523;DHT22;19889;52.546;13.348;2023-05-20T13:58:47;18.00;99.90
16523;DHT22;19889;52.546;13.348;2023-05-20T14:01:14;18.00;99.90
16523;DHT22;19889;52.546;13.348;2023-05-20T14:03:41;18.10;99.90
16523;DHT22;19889;52.546;13.348;2023-05-20T14:06:08;18.10;99.90
16523;DHT22;19889;52.546;13.348;2023-05-20T14:08:35;18.20;99.90
16523;DHT22;19889;52.546;13.348;2023-05-20T14:11:02;18.20;99.90
16523;DHT22;19889;52.546;13.348;2023-05-20T14:13:29;18.20;99.90
16523;DHT22;19889;52.546;13.348;2023-05-20T14:15:57;18.20;99.90
16523;DHT22;19889;52.546;13.348;2023-05-20T14:18:24;18.30;99.90
16523;DHT22;19889;52.546;13.348;2023-05-20T14:20:51;18.30;99.90
16523;DHT22;19889;52.546;13.348;2023-05-20T14:23:18;18.30;99.90
16523;DHT22;19889;52.546;13.348;2023-05-20T14:25:45;18.40;99.90
16523;DHT22;19889;52.546;13.348;2023-05-20T14:28:12;18.40;99.90
16523;DHT22;19889;52.546;13.348;2023-05-20T14:30:40;18.40;99.90
16523;DHT22;19889;52.546;13.348;2023-05-20T14:33:08;18.50;99.90
16523;DHT22;19889;52.546;13.348;2023-05-20T14:35:35;18.40;99.90
16523;DHT22;19889;52.546;13.348;2023-05-20T14:38:02;18.40;99.90
16523;DHT22;19889;52.546;13.348;2023-05-20T14:40:29;18.40;99.90
16523;DHT22;19889;52.546;13.348;2023-05-20T14:42:56;18.50;99.90
16523;DHT22;19889;52.546;13.348;2023-05-20T14:45:23;18.50;99.90
16523;DHT22;19889;52.546;13.348;2023-05-20T14:47:50;18.60;99.90
16523;DHT22;19889;52.546;13.348;2023-05-20T14:50:18;18.50;99.90
16523;DHT22;19889;52.546;13.348;2023-05-20T14:52:45;18.50;99.90
16523;DHT22;19889;52.546;13.348;2023-05-20T14:55:12;18.60;99.90
16523;DHT22;19889;52.546;13.348;2023-05-20T14:57:39;18.90;99.90
16523;DHT22;19889;52.546;13.348;2023-05-20T15:00:07;18.20;99.90
16523;DHT22;19889;52.546;13.348;2023-05-20T15:02:35;18.60;99.90
16523;DHT22;19889;52.546;13.348;2023-05-20T15:05:02;18.60;99.90
16523;DHT22;19889;52.546;13.348;2023-05-20T15:07:30;18.60;99.90
16523;DHT22;19889;52.546;13.348;2023-05-20T15:09:57;18.60;99.90
16523;DHT22;19889;52.546;13.348;2023-05-20T15:12:24;18.60;99.90
16523;DHT22;19889;52.546;13.348;2023-05-20T15:14:51;18.60;99.90
16523;DHT22;19889;52.546;13.348;2023-05-20T15:17:18;18.70;99.90
16523;DHT22;19889;52.546;13.348;2023-05-20T15:19:45;18.70;99.90
16523;DHT22;19889;52.546;13.348;2023-05-20T15:22:11;18.70;99.90
16523;DHT22;19889;52.546;13.348;2023-05-20T15:24:40;18.70;99.90
16523;DHT22;19889;52.546;13.348;2023-05-20T15:27:07;18.80;99.90
16523;DHT22;19889;52.546;13.348;2023-05-20T15:29:34;18.80;99.90
16523;DHT22;19889;52.546;13.348;2023-05-20T15:32:01;18.80;99.90
16523;DHT22;19889;52.546;13.348;2023-05-20T15:34:28;18.80;99.90
16523;DHT22;19889;52.546;13.348;2023-05-20T15:36:55;18.80;99.90
16523;DHT22;19889;52.546;13.348;2023-05-20T15:39:22;18.80;99.90
16523;DHT22;19889;52.546;13.348;2023-05-20T15:41:51;18.80;99.90
16523;DHT22;19889;52.546;13.348;2023-05-20T15:44:18;18.90;99.90
16523;DHT22;19889;52.546;13.348;2023-05-20T15:46:46;18.90;99.90
16523;DHT22;19889;52.546;13.348;2023-05-20T15:49:12;18.90;99.90
16523;DHT22;19889;52.546;13.348;2023-05-20T15:51:39;18.90;99.90
16523;DHT22;19889;52.546;13.348;2023-05-20T15:54:06;18.90;99.90
16523;DHT22;19889;52.546;13.348;2023-05-20T15:56:33;18.90;99.90
16523;DHT22;19889;52.546;13.348;2023-05-20T15:59:02;18.90;99.90
16523;DHT22;19889;52.546;13.348;2023-05-20T16:01:29;18.90;99.90
16523;DHT22;19889;52.546;13.348;2023-05-20T16:03:56;18.90;99.90
16523;DHT22;19889;52.546;13.348;2023-05-20T16:06:23;18.90;99.90
16523;DHT22;19889;52.546;13.348;2023-05-20T16:08:50;19.00;99.90
16523;DHT22;19889;52.546;13.348;2023-05-20T16:11:17;19.00;99.90
16523;DHT22;19889;52.546;13.348;2023-05-20T16:13:44;19.00;99.90
16523;DHT22;19889;52.546;13.348;2023-05-20T16:16:12;19.00;99.90
16523;DHT22;19889;52.546;13.348;2023-05-20T16:18:41;19.00;99.90
16523;DHT22;19889;52.546;13.348;2023-05-20T16:21:08;19.00;99.90
16523;DHT22;19889;52.546;13.348;2023-05-20T16:23:35;19.00;99.90
16523;DHT22;19889;52.546;13.348;2023-05-20T16:26:02;19.00;99.90
16523;DHT22;19889;52.546;13.348;2023-05-20T16:28:28;19.10;99.90
16523;DHT22;19889;52.546;13.348;2023-05-20T16:30:55;19.10;99.90
16523;DHT22;19889;52.546;13.348;2023-05-20T16:33:24;19.10;99.90
16523;DHT22;19889;52.546;13.348;2023-05-20T16:35:51;19.10;99.90
16523;DHT22;19889;52.546;13.348;2023-05-20T16:38:18;19.10;99.90
16523;DHT22;19889;52.546;13.348;2023-05-20T16:40:45;19.10;99.90
16523;DHT22;19889;52.546;13.348;2023-05-20T16:43:12;19.10;99.90
16523;DHT22;19889;52.546;13.348;2023-05-20T16:45:39;19.10;99.90
16523;DHT22;19889;52.546;13.348;2023-05-20T16:48:06;19.10;99.90
16523;DHT22;19889;52.546;13.348;2023-05-20T16:50:34;19.10;99.90
16523;DHT22;19889;52.546;13.348;2023-05-20T16:53:01;19.20;99.90
16523;DHT22;19889;52.546;13.348;2023-05-20T16:55:28;19.10;99.90
16523;DHT22;19889;52.546;13.348;2023-05-20T16:57:55;19.10;99.90
16523;DHT22;19889;52.546;13.348;2023-05-20T17:00:22;19.10;99.90
16523;DHT22;19889;52.546;13.348;2023-05-20T17:02:50;19.20;99.90
16523;DHT22;19889;52.546;13.348;2023-05-20T17:05:17;19.10;99.90
16523;DHT22;19889;52.546;13.348;2023-05-20T17:07:45;19.10;99.90
16523;DHT22;19889;52.546;13.348;2023-05-20T17:10:13;19.10;99.90
16523;DHT22;19889;52.546;13.348;2023-05-20T17:12:40;19.10;99.90
16523;DHT22;19889;52.546;13.348;2023-05-20T17:15:07;19.20;99.90
16523;DHT22;19889;52.546;13.348;2023-05-20T17:17:35;19.20;99.90
16523;DHT22;19889;52.546;13.348;2023-05-20T17:20:02;19.10;99.90
16523;DHT22;19889;52.546;13.348;2023-05-20T17:22:29;19.10;99.90
16523;DHT22;19889;52.546;13.348;2023-05-20T17:24:58;19.10;99.90
16523;DHT22;19889;52.546;13.348;2023-05-20T17:27:25;19.20;99.90
16523;DHT22;19889;52.546;13.348;2023-05-20T17:29:52;19.10;99.90
16523;DHT22;19889;52.546;13.348;2023-05-20T17:32:19;19.20;99.90
16523;DHT22;19889;52.546;13.348;2023-05-20T17:34:45;19.20;99.90
16523;DHT22;19889;52.546;13.348;2023-05-20T17:37:12;19.20;99.90
16523;DHT22;19889;52.546;13.348;2023-05-20T17:39:41;19.20;99.90
16523;DHT22;19889;52.546;13.348;2023-05-20T17:42:09;19.20;99.90
16523;DHT22;19889;52.546;13.348;2023-05-20T17:44:36;19.20;99.90
16523;DHT22;19889;52.546;13.348;2023-05-20T17:47:03;19.20;99.90
16523;DHT22;19889;52.546;13.348;2023-05-20T17:49:30;19.20;99.90
16523;DHT22;19889;52.546;13.348;2023-05-20T17:51:57;19.20;99.90
16523;DHT22;19889;52.546;13.348;2023-05-20T17:54:24;19.20;99.90
16523;DHT22;19889;52.546;13.348;2023-05-20T17:56:51;19.20;99.90
16523;DHT22;19889;52.546;13.348;2023-05-20T17:59:19;19.20;99.90
16523;DHT22;19889;52.546;13.348;2023-05-20T18:01:46;19.20;99.90
16523;DHT22;19889;52.546;13.348;2023-05-20T18:04:13;19.20;99.90
16523;DHT22;19889;52.546;13.348;2023-05-20T18:06:41;18.40;99.90
16523;DHT22;19889;52.546;13.348;2023-05-20T18:09:08;19.20;99.90
16523;DHT22;19889;52.546;13.348;2023-05-20T18:11:35;19.20;99.90
16523;DHT22;19889;52.546;13.348;2023-05-20T18:14:03;19.10;99.90
16523;DHT22;19889;52.546;13.348;2023-05-20T18:16:32;19.10;99.90
16523;DHT22;19889;52.546;13.348;2023-05-20T18:18:59;19.20;99.90
16523;DHT22;19889;52.546;13.348;2023-05-20T18:21:27;19.20;99.90
16523;DHT22;19889;52.546;13.348;2023-05-20T18:23:54;19.20;99.90
16523;DHT22;19889;52.546;13.348;2023-05-20T18:26:21;19.10;99.90
16523;DHT22;19889;52.546;13.348;2023-05-20T18:28:48;19.10;99.90
16523;DHT22;19889;52.546;13.348;2023-05-20T18:31:15;19.20;99.90
16523;DHT22;19889;52.546;13.348;2023-05-20T18:33:43;19.10;99.90
16523;DHT22;19889;52.546;13.348;2023-05-20T18:36:10;19.10;99.90
16523;DHT22;19889;52.546;13.348;2023-05-20T18:38:37;19.10;99.90
16523;DHT22;19889;52.546;13.348;2023-05-20T18:41:04;19.10;99.90
16523;DHT22;19889;52.546;13.348;2023-05-20T18:43:31;19.10;99.90
16523;DHT22;19889;52.546;13.348;2023-05-20T18:45:58;19.10;99.90
16523;DHT22;19889;52.546;13.348;2023-05-20T18:48:26;19.00;99.90
16523;DHT22;19889;52.546;13.348;2023-05-20T18:51:01;19.10;99.90
16523;DHT22;19889;52.546;13.348;2023-05-20T18:53:31;19.00;99.90
16523;DHT22;19889;52.546;13.348;2023-05-20T18:55:58;19.00;99.90
16523;DHT22;19889;52.546;13.348;2023-05-20T18:58:27;19.00;99.90
16523;DHT22;19889;52.546;13.348;2023-05-20T19:00:55;19.00;99.90
16523;DHT22;19889;52.546;13.348;2023-05-20T19:03:22;19.00;99.90
16523;DHT22;19889;52.546;13.348;2023-05-20T19:05:50;19.00;99.90
16523;DHT22;19889;52.546;13.348;2023-05-20T19:08:18;19.00;99.90
16523;DHT22;19889;52.546;13.348;2023-05-20T19:10:45;19.00;99.90
16523;DHT22;19889;52.546;13.348;2023-05-20T19:13:12;19.00;99.90
16523;DHT22;19889;52.546;13.348;2023-05-20T19:15:39;19.00;99.90
16523;DHT22;19889;52.546;13.348;2023-05-20T19:18:06;19.00;99.90
16523;DHT22;19889;52.546;13.348;2023-05-20T19:20:33;19.00;99.90
16523;DHT22;19889;52.546;13.348;2023-05-20T19:23:00;19.00;99.90
16523;DHT22;19889;52.546;13.348;2023-05-20T19:25:28;19.00;99.90
16523;DHT22;19889;52.546;13.348;2023-05-20T19:27:55;18.90;99.90
16523;DHT22;19889;52.546;13.348;2023-05-20T19:30:22;19.00;99.90
16523;DHT22;19889;52.546;13.348;2023-05-20T19:32:49;18.90;99.90
16523;DHT22;19889;52.546;13.348;2023-05-20T19:35:16;18.90;99.90
16523;DHT22;19889;52.546;13.348;2023-05-20T19:37:43;18.90;99.90
16523;DHT22;19889;52.546;13.348;2023-05-20T19:40:12;18.90;99.90
16523;DHT22;19889;52.546;13.348;2023-05-20T19:42:40;18.90;99.90
16523;DHT22;19889;52.546;13.348;2023-05-20T19:45:08;18.90;99.90
16523;DHT22;19889;52.546;13.348;2023-05-20T19:47:36;18.90;99.90
16523;DHT22;19889;52.546;13.348;2023-05-20T19:50:03;18.90;99.90
16523;DHT22;19889;52.546;13.348;2023-05-20T19:52:30;18.90;99.90
16523;DHT22;19889;52.546;13.348;2023-05-20T19:54:57;18.90;99.90
16523;DHT22;19889;52.546;13.348;2023-05-20T19:57:24;18.90;99.90
16523;DHT22;19889;52.546;13.348;2023-05-20T19:59:53;18.90;99.90
16523;DHT22;19889;52.546;13.348;2023-05-20T20:02:20;18.90;99.90
16523;DHT22;19889;52.546;13.348;2023-05-20T20:04:47;18.90;99.90
16523;DHT22;19889;52.546;13.348;2023-05-20T20:07:14;18.90;99.90
16523;DHT22;19889;52.546;13.348;2023-05-20T20:09:41;18.90;99.90
16523;DHT22;19889;52.546;13.348;2023-05-20T20:12:09;18.90;99.90
16523;DHT22;19889;52.546;13.348;2023-05-20T20:14:36;18.80;99.90
16523;DHT22;19889;52.546;13.348;2023-05-20T20:17:05;18.90;99.90
16523;DHT22;19889;52.546;13.348;2023-05-20T20:19:32;18.90;99.90
16523;DHT22;19889;52.546;13.348;2023-05-20T20:21:59;18.90;99.90
16523;DHT22;19889;52.546;13.348;2023-05-20T20:24:26;18.90;99.90
16523;DHT22;19889;52.546;13.348;2023-05-20T20:26:53;18.90;99.90
16523;DHT22;19889;52.546;13.348;2023-05-20T20:29:21;18.80;99.90
16523;DHT22;19889;52.546;13.348;2023-05-20T20:31:48;18.90;99.90
16523;DHT22;19889;52.546;13.348;2023-05-20T20:34:17;18.90;99.90
16523;DHT22;19889;52.546;13.348;2023-05-20T20:36:45;18.90;99.90
16523;DHT22;19889;52.546;13.348;2023-05-20T20:39:13;18.90;99.90
16523;DHT22;19889;52.546;13.348;2023-05-20T20:41:44;18.90;99.90
16523;DHT22;19889;52.546;13.348;2023-05-20T20:44:14;18.80;99.90
16523;DHT22;19889;52.546;13.348;2023-05-20T20:46:43;18.90;99.90
16523;DHT22;19889;52.546;13.348;2023-05-20T20:49:11;18.80;99.90
16523;DHT22;19889;52.546;13.348;2023-05-20T20:51:39;18.80;99.90
16523;DHT22;19889;52.546;13.348;2023-05-20T20:54:06;18.80;99.90
16523;DHT22;19889;52.546;13.348;2023-05-20T20:56:33;18.80;99.90
16523;DHT22;19889;52.546;13.348;2023-05-20T20:59:02;18.80;99.90
16523;DHT22;19889;52.546;13.348;2023-05-20T21:01:33;18.80;99.90
16523;DHT22;19889;52.546;13.348;2023-05-20T21:04:05;18.80;99.90
16523;DHT22;19889;52.546;13.348;2023-05-20T21:06:33;18.80;99.90
16523;DHT22;19889;52.546;13.348;2023-05-20T21:09:28;19.10;99.90
16523;DHT22;19889;52.546;13.348;2023-05-20T21:12:03;18.80;99.90
16523;DHT22;19889;52.546;13.348;2023-05-20T21:14:37;18.80;99.90
16523;DHT22;19889;52.546;13.348;2023-05-20T21:17:04;18.80;99.90
16523;DHT22;19889;52.546;13.348;2023-05-20T21:19:41;18.80;99.90
16523;DHT22;19889;52.546;13.348;2023-05-20T21:22:14;18.80;99.90
16523;DHT22;19889;52.546;13.348;2023-05-20T21:24:43;18.80;99.90
16523;DHT22;19889;52.546;13.348;2023-05-20T21:27:10;18.80;99.90
16523;DHT22;19889;52.546;13.348;2023-05-20T21:29:37;18.80;99.90
16523;DHT22;19889;52.546;13.348;2023-05-20T21:32:05;18.80;99.90
16523;DHT22;19889;52.546;13.348;2023-05-20T21:34:35;18.80;99.90
16523;DHT22;19889;52.546;13.348;2023-05-20T21:37:08;18.70;99.90
16523;DHT22;19889;52.546;13.348;2023-05-20T21:39:35;18.70;99.90
16523;DHT22;19889;52.546;13.348;2023-05-20T21:42:05;18.70;99.90
16523;DHT22;19889;52.546;13.348;2023-05-20T21:44:33;18.70;99.90
16523;DHT22;19889;52.546;13.348;2023-05-20T21:47:08;18.70;99.90
16523;DHT22;19889;52.546;13.348;2023-05-20T21:49:38;18.70;99.90
16523;DHT22;19889;52.546;13.348;2023-05-20T21:52:05;18.70;99.90
16523;DHT22;19889;52.546;13.348;2023-05-20T21:54:34;18.70;99.90
16523;DHT22;19889;52.546;13.348;2023-05-20T21:57:01;18.70;99.90
16523;DHT22;19889;52.546;13.348;2023-05-20T21:59:30;18.70;99.90
16523;DHT22;19889;52.546;13.348;2023-05-20T22:01:57;18.70;99.90
16523;DHT22;19889;52.546;13.348;2023-05-20T22:04:25;18.60;99.90
16523;DHT22;19889;52.546;13.348;2023-05-20T22:06:53;18.60;99.90
16523;DHT22;19889;52.546;13.348;2023-05-20T22:09:20;18.60;99.90
16523;DHT22;19889;52.546;13.348;2023-05-20T22:11:47;18.50;99.90
16523;DHT22;19889;52.546;13.348;2023-05-20T22:14:15;18.50;99.90
16523;DHT22;19889;52.546;13.348;2023-05-20T22:16:43;18.50;99.90
16523;DHT22;19889;52.546;13.348;2023-05-20T22:19:12;18.50;99.90
16523;DHT22;19889;52.546;13.348;2023-05-20T22:21:40;18.50;99.90
16523;DHT22;19889;52.546;13.348;2023-05-20T22:24:08;18.50;99.90
16523;DHT22;19889;52.546;13.348;2023-05-20T22:26:35;18.40;99.90
16523;DHT22;19889;52.546;13.348;2023-05-20T22:29:03;18.40;99.90
16523;DHT22;19889;52.546;13.348;2023-05-20T22:31:30;18.40;99.90
16523;DHT22;19889;52.546;13.348;2023-05-20T22:33:59;18.40;99.90
16523;DHT22;19889;52.546;13.348;2023-05-20T22:36:27;18.40;99.90
16523;DHT22;19889;52.546;13.348;2023-05-20T22:38:58;18.40;99.90
16523;DHT22;19889;52.546;13.348;2023-05-20T22:41:25;18.40;99.90
16523;DHT22;19889;52.546;13.348;2023-05-20T22:43:52;18.40;99.90
16523;DHT22;19889;52.546;13.348;2023-05-20T22:46:21;18.40;99.90
16523;DHT22;19889;52.546;13.348;2023-05-20T22:48:48;18.40;99.90
16523;DHT22;19889;52.546;13.348;2023-05-20T22:51:18;18.40;99.90
16523;DHT22;19889;52.546;13.348;2023-05-20T22:53:46;18.40;99.90
16523;DHT22;19889;52.546;13.348;2023-05-20T22:56:13;18.30;99.90
16523;DHT22;19889;52.546;13.348;2023-05-20T22:58:40;18.30;99.90
16523;DHT22;19889;52.546;13.348;2023-05-20T23:01:07;18.30;99.90
16523;DHT22;19889;52.546;13.348;2023-05-20T23:03:35;18.30;99.90
16523;DHT22;19889;52.546;13.348;2023-05-20T23:06:02;18.30;99.90
16523;DHT22;19889;52.546;13.348;2023-05-20T23:08:30;18.30;99.90
16523;DHT22;19889;52.546;13.348;2023-05-20T23:10:57;18.30;99.90
16523;DHT22;19889;52.546;13.348;2023-05-20T23:13:24;18.30;99.90